Time;durP1;ratioP1;P1;durP2;ratioP2;P2;SDS_P1;SDS_P2;PMS_P1;PMS_P2;Temp;Humidity;BMP_temperature;BMP_pressure;BME280_temperature;BME280_humidity;BME280_pressure;Samples;Min_cycle;Max_cycle;Signal;HPM_P1;HPM_P2
2023/04/18 00:00:51;;;;;;;32.67;23.93;;;10.20;99.90;;;;;;2603959;54;20029;31
2023/04/18 00:03:28;;;;;;;33.35;24.65;;;10.20;99.90;;;;;;2603902;54;21882;31
2023/04/18 00:06:06;;;;;;;30.77;23.13;;;10.20;99.90;;;;;;2603808;54;20780;31
2023/04/18 00:08:44;;;;;;;33.83;24.98;;;10.20;99.90;;;;;;2603827;54;20034;31
2023/04/18 00:11:21;;;;;;;35.85;24.70;;;10.20;99.90;;;;;;2603696;54;20127;31
2023/04/18 00:14:02;;;;;;;32.80;24.75;;;10.20;99.90;;;;;;2604139;54;20052;31
2023/04/18 00:16:41;;;;;;;30.17;22.33;;;10.20;99.90;;;;;;2603698;54;20052;31
2023/04/18 00:19:17;;;;;;;33.05;23.90;;;10.20;99.90;;;;;;2603773;54;21722;31
2023/04/18 00:21:56;;;;;;;29.75;21.92;;;10.20;99.90;;;;;;2603719;54;20836;31
2023/04/18 00:24:38;;;;;;;30.75;22.40;;;10.10;99.90;;;;;;2603810;54;20046;31
2023/04/18 00:27:15;;;;;;;33.95;23.25;;;10.20;99.90;;;;;;2622039;46;20111;31
2023/04/18 00:29:50;;;;;;;35.05;23.55;;;10.20;99.90;;;;;;2603721;54;20030;31
2023/04/18 00:32:27;;;;;;;30.90;23.50;;;10.10;99.90;;;;;;2603701;54;20085;31
2023/04/18 00:35:06;;;;;;;34.30;23.85;;;10.10;99.90;;;;;;2603691;54;19935;31
2023/04/18 00:37:44;;;;;;;35.70;26.40;;;10.10;99.90;;;;;;2622243;46;20060;31
2023/04/18 00:40:26;;;;;;;37.20;27.38;;;10.10;99.90;;;;;;2702449;39;22494;31
2023/04/18 00:43:02;;;;;;;31.45;23.70;;;10.10;99.90;;;;;;2602948;54;20034;31
2023/04/18 00:45:37;;;;;;;34.92;25.40;;;10.00;99.90;;;;;;2603724;54;20030;31
2023/04/18 00:48:15;;;;;;;35.07;24.93;;;10.00;99.90;;;;;;2603789;54;20764;31
2023/04/18 00:50:51;;;;;;;35.15;25.08;;;10.10;99.90;;;;;;2603569;54;20966;31
2023/04/18 00:53:28;;;;;;;34.70;24.95;;;10.00;99.90;;;;;;2603372;54;20728;31
2023/04/18 00:56:12;;;;;;;35.80;24.95;;;10.00;99.90;;;;;;2702445;39;21034;31
2023/04/18 00:58:48;;;;;;;31.52;23.88;;;10.00;99.90;;;;;;2603555;54;20893;31
2023/04/18 01:01:29;;;;;;;33.15;22.77;;;10.00;99.90;;;;;;2603564;54;20918;31
2023/04/18 01:04:06;;;;;;;31.70;23.75;;;10.00;99.90;;;;;;2621614;46;20035;31
2023/04/18 01:06:44;;;;;;;31.02;24.23;;;10.00;99.90;;;;;;2621561;46;20053;31
2023/04/18 01:09:20;;;;;;;34.65;24.25;;;10.00;99.90;;;;;;2602639;54;20773;31
2023/04/18 01:11:59;;;;;;;35.05;24.90;;;10.00;99.90;;;;;;2603428;54;20026;31
2023/04/18 01:14:35;;;;;;;32.65;22.95;;;10.00;99.90;;;;;;2602939;54;20034;31
2023/04/18 01:17:12;;;;;;;;;;;10.00;99.90;;;;;;2603635;54;20081;31
2023/04/18 01:19:49;;;;;;;30.90;22.13;;;9.90;99.90;;;;;;2622096;46;20670;31
2023/04/18 01:22:27;;;;;;;33.83;24.55;;;9.90;99.90;;;;;;2603755;54;20093;31
2023/04/18 01:25:18;;;;;;;30.88;23.30;;;9.90;99.90;;;;;;2603664;54;20042;31
2023/04/18 01:30:29;;;;;;;32.67;23.55;;;9.90;99.90;;;;;;2603404;54;25133;31
2023/04/18 01:33:05;;;;;;;34.25;22.50;;;9.90;99.90;;;;;;2603400;54;20053;31
2023/04/18 01:35:43;;;;;;;32.80;23.60;;;9.90;99.90;;;;;;2603349;54;20037;31
2023/04/18 01:38:25;;;;;;;36.92;25.20;;;9.90;99.90;;;;;;2606938;46;20064;31
2023/04/18 01:41:07;;;;;;;31.35;23.52;;;9.90;99.90;;;;;;2622210;46;20882;31
2023/04/18 01:43:46;;;;;;;35.95;23.05;;;9.90;99.90;;;;;;2603434;54;20876;31
2023/04/18 01:46:24;;;;;;;31.35;23.55;;;9.80;99.90;;;;;;2773381;31;20730;31
2023/04/18 01:49:04;;;;;;;30.70;21.90;;;9.80;99.90;;;;;;2622103;46;20022;31
2023/04/18 01:51:41;;;;;;;31.30;22.80;;;9.80;99.90;;;;;;2603548;54;20022;31
2023/04/18 01:54:24;;;;;;;36.15;25.05;;;9.80;99.90;;;;;;2603571;54;20031;31
2023/04/18 01:57:04;;;;;;;28.10;21.40;;;9.80;99.90;;;;;;2602573;54;20754;31
2023/04/18 01:59:40;;;;;;;34.38;25.70;;;9.80;99.90;;;;;;2602633;54;20034;31
2023/04/18 02:02:19;;;;;;;34.40;23.77;;;9.80;99.90;;;;;;2621671;46;21823;31
2023/04/18 02:04:58;;;;;;;30.03;22.97;;;9.80;99.90;;;;;;2603206;54;20270;31
2023/04/18 02:07:32;;;;;;;31.60;23.38;;;9.80;99.90;;;;;;2603397;54;20036;31
2023/04/18 02:10:12;;;;;;;34.10;23.45;;;9.80;99.90;;;;;;2603389;54;20022;31
2023/04/18 02:12:55;;;;;;;34.80;23.10;;;9.80;99.90;;;;;;2621527;46;20859;31
2023/04/18 02:15:33;;;;;;;29.55;21.85;;;9.80;99.90;;;;;;2602687;54;20061;31
2023/04/18 02:18:16;;;;;;;29.10;21.37;;;9.80;99.90;;;;;;2621904;46;20022;31
2023/04/18 02:20:53;;;;;;;32.40;23.90;;;9.80;99.90;;;;;;2622089;46;20085;31
2023/04/18 02:23:32;;;;;;;30.23;21.35;;;9.80;99.90;;;;;;2603346;54;20687;31
2023/04/18 02:26:08;;;;;;;29.45;20.98;;;9.70;99.90;;;;;;2603084;54;20088;31
2023/04/18 02:28:43;;;;;;;27.85;20.90;;;9.70;99.90;;;;;;2603319;54;20897;31
2023/04/18 02:31:26;;;;;;;30.38;22.05;;;9.70;99.90;;;;;;2603365;54;20030;31
2023/04/18 02:36:41;;;;;;;25.70;20.10;;;9.70;99.90;;;;;;2621981;46;20026;31
2023/04/18 02:39:17;;;;;;;27.15;21.30;;;9.70;99.90;;;;;;2773277;31;25176;31
2023/04/18 02:41:56;;;;;;;30.60;22.40;;;9.70;99.90;;;;;;2602604;54;20027;31
2023/04/18 02:44:32;;;;;;;29.35;21.58;;;9.70;99.90;;;;;;2602613;54;20873;31
2023/04/18 02:47:13;;;;;;;31.15;22.35;;;9.70;99.90;;;;;;2602507;54;20880;31
2023/04/18 02:49:52;;;;;;;29.20;21.65;;;9.70;99.90;;;;;;2603246;54;20149;31
2023/04/18 02:52:28;;;;;;;28.90;22.38;;;9.70;99.90;;;;;;2603203;54;20082;31
2023/04/18 02:55:07;;;;;;;31.85;23.90;;;9.70;99.90;;;;;;2603193;54;20995;31
2023/04/18 02:57:48;;;;;;;30.20;22.73;;;9.60;99.90;;;;;;2603322;54;20094;31
2023/04/18 03:00:42;;;;;;;27.98;21.63;;;9.60;99.90;;;;;;2603164;54;20033;31
2023/04/18 03:03:29;;;;;;;25.70;20.90;;;9.60;99.90;;;;;;2621848;46;20022;31
2023/04/18 03:06:26;;;;;;;26.35;19.63;;;9.60;99.90;;;;;;2603180;54;20033;31
2023/04/18 03:09:05;;;;;;;28.85;21.65;;;9.70;99.90;;;;;;2621472;46;20041;31
2023/04/18 03:11:43;;;;;;;34.10;25.35;;;9.60;99.90;;;;;;2603236;54;20027;31
2023/04/18 03:14:21;;;;;;;29.30;24.17;;;9.60;99.90;;;;;;2603136;54;20076;31
2023/04/18 03:17:03;;;;;;;32.50;24.65;;;9.60;99.90;;;;;;2602406;54;20053;31
2023/04/18 03:19:48;;;;;;;29.27;22.20;;;9.60;99.90;;;;;;2603280;54;20854;31
2023/04/18 03:22:30;;;;;;;26.20;20.35;;;9.60;99.90;;;;;;2603049;54;20022;31
2023/04/18 03:25:10;;;;;;;26.33;20.55;;;9.60;99.90;;;;;;2603007;54;20056;31
2023/04/18 03:27:58;;;;;;;26.65;20.95;;;9.60;99.90;;;;;;2621440;47;20068;31
2023/04/18 03:30:35;;;;;;;28.90;20.95;;;9.60;99.90;;;;;;2603061;54;20034;31
2023/04/18 03:33:16;;;;;;;27.50;20.35;;;9.60;99.90;;;;;;2602754;54;20109;31
2023/04/18 03:38:34;;;;;;;27.00;21.10;;;9.60;99.90;;;;;;2603070;54;20030;31
2023/04/18 03:41:09;;;;;;;29.52;21.65;;;9.50;99.90;;;;;;2602198;54;20649;31
2023/04/18 03:43:46;;;;;;;31.08;22.60;;;9.50;99.90;;;;;;2603163;54;20121;31
2023/04/18 03:46:21;;;;;;;;;;;9.50;99.90;;;;;;2603225;54;20128;31
2023/04/18 03:49:02;;;;;;;30.30;21.85;;;9.50;99.90;;;;;;2613872;47;19949;31
2023/04/18 03:51:46;;;;;;;30.38;23.48;;;9.50;99.90;;;;;;2700678;39;21736;31
2023/04/18 03:54:26;;;;;;;32.17;23.95;;;9.50;99.90;;;;;;2602367;54;20855;31
2023/04/18 03:57:02;;;;;;;29.27;21.75;;;9.50;99.90;;;;;;2621135;47;20026;31
2023/04/18 03:59:41;;;;;;;33.42;24.17;;;9.50;99.90;;;;;;2602405;54;20824;31
2023/04/18 04:02:16;;;;;;;;;;;9.50;99.90;;;;;;2602393;54;20619;31
2023/04/18 04:04:52;;;;;;;45.15;29.60;;;9.50;99.90;;;;;;2602769;54;20762;31
2023/04/18 04:07:32;;;;;;;43.00;29.33;;;9.50;99.90;;;;;;2603055;54;20029;31
2023/04/18 04:10:16;;;;;;;40.92;28.45;;;9.40;99.90;;;;;;2603000;54;20033;31
2023/04/18 04:12:52;;;;;;;34.05;25.42;;;9.50;99.90;;;;;;2621714;47;20027;31
2023/04/18 04:15:32;;;;;;;38.03;26.35;;;9.40;99.90;;;;;;2602328;54;20069;31
2023/04/18 04:18:17;;;;;;;31.95;24.25;;;9.40;99.90;;;;;;2602845;54;20026;31
2023/04/18 04:20:55;;;;;;;35.13;25.38;;;9.40;99.90;;;;;;2621040;47;20029;31
2023/04/18 04:23:51;;;;;;;35.45;24.70;;;9.40;99.90;;;;;;2602926;54;20048;31
2023/04/18 04:26:43;;;;;;;34.58;25.50;;;9.40;99.90;;;;;;2621236;47;21708;31
2023/04/18 04:29:30;;;;;;;35.38;26.40;;;9.40;99.90;;;;;;2603932;54;19939;31
2023/04/18 04:32:06;;;;;;;37.33;26.02;;;9.30;99.90;;;;;;2603869;54;20802;31
2023/04/18 04:34:46;;;;;;;36.35;25.58;;;9.40;99.90;;;;;;2622210;46;20022;31
2023/04/18 04:37:22;;;;;;;36.40;27.08;;;9.30;99.90;;;;;;2701376;39;21435;31
2023/04/18 04:40:10;;;;;;;35.20;25.80;;;9.30;99.90;;;;;;2603755;54;20124;31
2023/04/18 04:43:11;;;;;;;38.58;27.17;;;9.30;99.90;;;;;;2603829;54;20030;31
2023/04/18 04:45:54;;;;;;;34.60;25.90;;;9.30;99.90;;;;;;2603712;54;20137;31
2023/04/18 04:48:33;;;;;;;34.40;25.80;;;9.30;99.90;;;;;;2603673;54;20824;31
2023/04/18 04:51:09;;;;;;;36.40;25.83;;;9.40;99.90;;;;;;2603675;54;20931;31
2023/04/18 04:53:46;;;;;;;36.03;25.58;;;9.30;99.90;;;;;;2720589;39;20391;31
2023/04/18 04:58:55;;;;;;;35.45;25.27;;;9.30;99.90;;;;;;2621454;46;21346;31
2023/04/18 05:01:41;;;;;;;31.85;25.45;;;9.40;99.90;;;;;;2602950;54;20855;31
2023/04/18 05:04:19;;;;;;;34.55;25.13;;;9.40;99.90;;;;;;2602736;54;20037;31
2023/04/18 05:06:56;;;;;;;33.35;24.30;;;9.40;99.90;;;;;;2602930;54;20842;31
2023/04/18 05:09:33;;;;;;;31.05;24.10;;;9.40;99.90;;;;;;2603066;54;20771;31
2023/04/18 05:12:13;;;;;;;34.20;24.27;;;9.40;99.90;;;;;;2602718;54;20034;31
2023/04/18 05:14:50;;;;;;;33.20;25.38;;;9.40;99.90;;;;;;2611492;46;20026;31
2023/04/18 05:17:29;;;;;;;32.03;24.13;;;9.40;99.90;;;;;;2602961;54;20034;31
2023/04/18 05:20:08;;;;;;;34.65;25.20;;;9.40;99.90;;;;;;2603756;54;20246;31
2023/04/18 05:22:46;;;;;;;33.45;24.52;;;9.40;99.90;;;;;;2603458;54;20149;31
2023/04/18 05:25:32;;;;;;;34.20;26.13;;;9.40;99.90;;;;;;2603633;54;20025;31
2023/04/18 05:28:14;;;;;;;33.25;24.75;;;9.40;99.90;;;;;;2702007;39;20545;31
2023/04/18 05:30:59;;;;;;;32.72;24.20;;;9.40;99.90;;;;;;2603483;54;20053;31
2023/04/18 05:33:41;;;;;;;33.13;25.08;;;9.40;99.90;;;;;;2615262;46;20859;31
2023/04/18 05:36:16;;;;;;;36.65;25.40;;;9.40;99.90;;;;;;2603394;54;20108;31
2023/04/18 05:38:52;;;;;;;32.20;24.35;;;9.40;99.90;;;;;;2603447;54;20031;31
2023/04/18 05:41:29;;;;;;;32.40;24.27;;;9.40;99.90;;;;;;2603461;54;20082;31
2023/04/18 05:44:07;;;;;;;32.53;25.15;;;9.40;99.90;;;;;;2602793;54;20037;31
2023/04/18 05:46:45;;;;;;;33.58;24.77;;;9.40;99.90;;;;;;2622043;46;20888;31
2023/04/18 05:49:20;;;;;;;33.42;24.42;;;9.50;99.90;;;;;;2603633;54;20826;31
2023/04/18 05:52:06;;;;;;;38.25;26.00;;;9.50;99.90;;;;;;2603453;54;20026;31
2023/04/18 05:54:43;;;;;;;36.80;25.43;;;9.40;99.90;;;;;;2602828;54;20023;31
2023/04/18 05:57:20;;;;;;;36.60;26.05;;;9.40;99.90;;;;;;2702329;39;20497;31
2023/04/18 05:59:57;;;;;;;34.17;25.40;;;9.50;99.90;;;;;;2603529;54;20026;31
2023/04/18 06:02:33;;;;;;;34.70;25.90;;;9.50;99.90;;;;;;2602626;54;20246;31
2023/04/18 06:05:11;;;;;;;36.15;26.55;;;9.50;99.90;;;;;;2621876;46;20033;31
2023/04/18 06:07:50;;;;;;;37.47;26.95;;;9.50;99.90;;;;;;2603542;54;20818;31
2023/04/18 06:10:29;;;;;;;35.20;25.67;;;9.50;99.90;;;;;;2702005;39;21032;31
2023/04/18 06:13:03;;;;;;;35.08;24.02;;;9.50;99.90;;;;;;2603446;54;20585;31
2023/04/18 06:15:39;;;;;;;34.67;25.05;;;9.50;99.90;;;;;;2603406;54;20053;31
2023/04/18 06:18:17;;;;;;;32.10;23.90;;;9.60;99.90;;;;;;2622099;46;20026;31
2023/04/18 06:20:52;;;;;;;30.15;24.95;;;9.60;99.90;;;;;;2621635;46;20899;31
2023/04/18 06:23:32;;;;;;;35.00;24.13;;;9.60;99.90;;;;;;2622103;46;20029;31
2023/04/18 06:26:08;;;;;;;34.30;24.95;;;9.60;99.90;;;;;;2603230;54;20030;31
2023/04/18 06:28:49;;;;;;;35.05;24.73;;;9.60;99.90;;;;;;2701213;39;21605;31
2023/04/18 06:31:26;;;;;;;34.90;26.10;;;9.60;99.90;;;;;;2603254;54;20042;31
2023/04/18 06:34:03;;;;;;;33.33;25.73;;;9.60;99.90;;;;;;2621704;46;20031;31
2023/04/18 06:36:41;;;;;;;33.00;25.83;;;9.60;99.90;;;;;;2602472;54;20045;31
2023/04/18 06:39:23;;;;;;;35.20;26.10;;;9.60;99.90;;;;;;2603164;54;21272;31
2023/04/18 06:42:01;;;;;;;35.10;25.23;;;9.60;99.90;;;;;;2603357;54;21297;31
2023/04/18 06:44:39;;;;;;;34.45;25.98;;;9.60;99.90;;;;;;2602491;54;20585;31
2023/04/18 06:47:18;;;;;;;34.78;25.23;;;9.60;99.90;;;;;;2602542;54;20944;31
2023/04/18 06:49:55;;;;;;;31.58;23.95;;;9.50;99.90;;;;;;2602296;54;20034;31
2023/04/18 06:52:34;;;;;;;32.80;23.67;;;9.60;99.90;;;;;;2602638;54;20030;31
2023/04/18 06:55:15;;;;;;;33.17;26.00;;;9.70;99.90;;;;;;2602682;54;20683;31
2023/04/18 06:57:52;;;;;;;33.10;23.63;;;9.70;99.90;;;;;;2619545;46;20863;31
2023/04/18 07:00:29;;;;;;;31.08;23.17;;;9.70;99.90;;;;;;2603252;54;20029;31
2023/04/18 07:03:08;;;;;;;31.10;23.45;;;9.70;99.90;;;;;;2603187;54;19942;31
2023/04/18 07:05:46;;;;;;;26.08;20.20;;;9.70;99.90;;;;;;2701523;39;20529;31
2023/04/18 07:08:22;;;;;;;30.13;22.80;;;9.80;99.90;;;;;;2603138;54;21310;31
2023/04/18 07:11:01;;;;;;;25.30;19.45;;;9.80;99.90;;;;;;2603129;54;21276;31
2023/04/18 07:13:38;;;;;;;26.42;19.25;;;9.80;99.90;;;;;;2603182;54;20049;31
2023/04/18 07:16:16;;;;;;;27.35;19.95;;;9.80;99.90;;;;;;2701621;39;20528;31
2023/04/18 07:18:54;;;;;;;26.40;19.48;;;9.80;99.90;;;;;;2603048;54;20030;31
2023/04/18 07:21:32;;;;;;;24.85;19.83;;;9.80;99.90;;;;;;2720129;39;20622;31
2023/04/18 07:24:10;;;;;;;27.93;20.30;;;9.80;99.90;;;;;;2621918;46;20042;31
2023/04/18 07:26:53;;;;;;;30.27;22.08;;;9.90;99.90;;;;;;2602822;54;20048;31
2023/04/18 07:29:30;;;;;;;31.10;24.42;;;9.90;99.90;;;;;;2621487;47;20037;31
2023/04/18 07:32:09;;;;;;;33.80;25.40;;;9.90;99.90;;;;;;2602183;54;20889;31
2023/04/18 07:34:46;;;;;;;34.15;27.73;;;9.90;99.90;;;;;;2602458;54;20689;31
2023/04/18 07:37:25;;;;;;;30.13;23.00;;;9.90;99.90;;;;;;2602966;54;20037;31
2023/04/18 07:40:04;;;;;;;27.40;21.88;;;10.00;99.90;;;;;;2603364;54;20861;31
2023/04/18 07:42:48;;;;;;;25.50;18.85;;;10.00;99.90;;;;;;2621777;47;20928;31
2023/04/18 07:45:25;;;;;;;28.40;22.30;;;10.00;99.90;;;;;;2621750;47;20018;31
2023/04/18 07:48:08;;;;;;;27.83;21.83;;;10.10;99.90;;;;;;2603080;54;20054;31
2023/04/18 07:50:44;;;;;;;27.20;21.60;;;10.00;99.90;;;;;;2603234;54;20099;31
2023/04/18 07:53:21;;;;;;;32.53;23.30;;;10.00;99.90;;;;;;2621586;47;20031;31
2023/04/18 07:55:58;;;;;;;27.30;21.25;;;10.10;99.90;;;;;;2602824;54;20046;31
2023/04/18 07:58:40;;;;;;;29.05;21.45;;;10.10;99.90;;;;;;2621907;47;20034;31
2023/04/18 08:01:17;;;;;;;23.20;17.70;;;10.10;99.90;;;;;;2603090;54;20037;31
2023/04/18 08:04:00;;;;;;;23.27;16.35;;;10.10;99.90;;;;;;2603701;54;20030;31
2023/04/18 08:06:37;;;;;;;28.98;20.10;;;10.10;99.90;;;;;;2604074;54;20027;31
2023/04/18 08:09:19;;;;;;;22.08;17.70;;;10.20;99.90;;;;;;2613980;46;20030;31
2023/04/18 08:11:57;;;;;;;19.70;15.80;;;10.20;99.90;;;;;;2611757;46;20696;31
2023/04/18 08:14:39;;;;;;;25.08;18.05;;;10.20;99.90;;;;;;2615968;46;20899;31
2023/04/18 08:17:17;;;;;;;21.73;16.52;;;10.30;99.90;;;;;;2603596;54;20778;31
2023/04/18 08:19:53;;;;;;;19.77;15.32;;;10.30;99.90;;;;;;2603834;54;20030;31
2023/04/18 08:22:31;;;;;;;27.63;19.00;;;10.40;99.90;;;;;;2603971;54;20827;31
2023/04/18 08:25:11;;;;;;;21.40;16.40;;;10.40;99.90;;;;;;2603694;54;20987;31
2023/04/18 08:27:54;;;;;;;22.30;17.00;;;10.50;99.90;;;;;;2603775;54;20030;31
2023/04/18 08:30:36;;;;;;;22.47;16.57;;;10.50;99.90;;;;;;2603709;54;20026;31
2023/04/18 08:33:12;;;;;;;21.20;15.70;;;10.50;99.90;;;;;;2603637;54;20349;31
2023/04/18 08:35:53;;;;;;;18.73;15.52;;;10.50;99.90;;;;;;2602961;54;20928;31
2023/04/18 08:38:29;;;;;;;21.73;17.33;;;10.60;99.90;;;;;;2619618;46;20018;31
2023/04/18 08:41:09;;;;;;;23.70;17.27;;;10.60;99.90;;;;;;2603140;54;20049;31
2023/04/18 08:43:46;;;;;;;21.33;16.98;;;10.50;99.90;;;;;;2603535;54;20766;31
2023/04/18 08:46:28;;;;;;;23.90;16.65;;;10.60;99.90;;;;;;2603875;54;20144;31
2023/04/18 08:49:07;;;;;;;22.30;16.75;;;10.50;99.90;;;;;;2603659;54;20592;31
2023/04/18 08:51:46;;;;;;;24.60;18.95;;;10.50;99.90;;;;;;2603894;54;20852;31
2023/04/18 08:54:24;;;;;;;22.43;17.00;;;10.50;99.90;;;;;;2603862;54;20034;31
2023/04/18 08:57:12;;;;;;;27.50;19.15;;;10.60;99.90;;;;;;2720312;39;20501;31
2023/04/18 08:59:52;;;;;;;25.40;17.30;;;10.60;99.90;;;;;;2603598;54;20728;31
2023/04/18 09:02:41;;;;;;;24.98;18.05;;;10.60;99.90;;;;;;2702235;39;20718;31
2023/04/18 09:05:19;;;;;;;25.37;18.77;;;10.60;99.90;;;;;;2603213;54;20504;31
2023/04/18 09:07:55;;;;;;;26.00;19.52;;;10.60;99.90;;;;;;2702264;39;20513;31
2023/04/18 09:10:33;;;;;;;25.55;19.20;;;10.60;99.90;;;;;;2603862;54;20877;31
2023/04/18 09:13:14;;;;;;;27.70;19.95;;;10.60;99.90;;;;;;2621666;46;20853;31
2023/04/18 09:16:01;;;;;;;24.65;18.85;;;10.60;99.90;;;;;;2603522;54;20038;31
2023/04/18 09:18:42;;;;;;;28.20;18.87;;;10.70;99.90;;;;;;2783181;31;20576;31
2023/04/18 09:21:25;;;;;;;27.88;19.98;;;10.60;99.90;;;;;;2622215;46;20027;31
2023/04/18 09:24:19;;;;;;;24.85;19.40;;;10.70;99.90;;;;;;2622387;46;20026;31
2023/04/18 09:27:00;;;;;;;29.80;21.52;;;10.70;99.90;;;;;;2603444;54;20049;31
2023/04/18 09:29:48;;;;;;;34.10;22.85;;;10.70;99.90;;;;;;2603391;54;20034;31
2023/04/18 09:32:29;;;;;;;29.50;22.77;;;10.70;99.90;;;;;;2603312;54;20824;31
2023/04/18 09:35:08;;;;;;;30.17;21.65;;;10.80;99.90;;;;;;2603448;54;20568;31
2023/04/18 09:37:45;;;;;;;34.08;23.25;;;10.80;99.90;;;;;;2603591;54;20860;31
2023/04/18 09:40:23;;;;;;;33.67;23.45;;;10.90;99.90;;;;;;2720100;39;20560;31
2023/04/18 09:42:58;;;;;;;30.40;20.45;;;10.90;99.90;;;;;;2602781;54;20034;31
2023/04/18 09:45:44;;;;;;;26.10;19.50;;;11.00;99.90;;;;;;2603559;54;20525;31
2023/04/18 09:48:26;;;;;;;27.40;20.60;;;11.00;99.90;;;;;;2603569;54;20033;31
2023/04/18 09:51:08;;;;;;;29.88;20.63;;;11.10;99.90;;;;;;2622163;46;20031;31
2023/04/18 09:53:49;;;;;;;32.28;21.38;;;11.10;99.90;;;;;;2602782;54;20825;31
2023/04/18 09:56:28;;;;;;;26.27;20.02;;;11.10;99.90;;;;;;2602771;54;20884;31
2023/04/18 09:59:05;;;;;;;22.50;18.63;;;11.20;99.90;;;;;;2701663;39;20592;31
2023/04/18 10:01:47;;;;;;;27.60;21.00;;;11.20;99.90;;;;;;2603625;54;20572;31
2023/04/18 10:04:24;;;;;;;26.45;20.35;;;11.20;99.90;;;;;;2621986;46;20038;31
2023/04/18 10:07:07;;;;;;;29.63;20.65;;;11.30;99.90;;;;;;2622042;46;20068;31
2023/04/18 10:09:44;;;;;;;27.35;20.30;;;11.30;99.90;;;;;;2622119;46;20030;31
2023/04/18 10:12:20;;;;;;;24.95;18.80;;;11.40;99.90;;;;;;2701602;39;20493;31
2023/04/18 10:15:05;;;;;;;25.77;18.65;;;11.40;99.90;;;;;;2621542;46;20057;31
2023/04/18 10:17:58;;;;;;;29.58;19.10;;;11.50;99.90;;;;;;2603226;54;20042;31
2023/04/18 10:20:39;;;;;;;27.23;19.75;;;11.50;99.90;;;;;;2603076;54;22353;31
2023/04/18 10:23:53;;;;;;;27.92;20.35;;;11.50;99.90;;;;;;2603499;54;20116;31
2023/04/18 10:26:52;;;;;;;24.85;17.58;;;11.60;99.90;;;;;;2603360;54;20897;31
2023/04/18 10:29:49;;;;;;;22.05;17.70;;;11.50;99.90;;;;;;2773147;31;20615;31
2023/04/18 10:32:29;;;;;;;24.52;17.77;;;11.60;99.90;;;;;;2602585;54;20871;31
2023/04/18 10:35:09;;;;;;;28.02;19.08;;;11.60;99.90;;;;;;2602503;54;20597;31
2023/04/18 10:37:52;;;;;;;25.10;19.30;;;11.70;99.90;;;;;;2602095;54;20589;31
2023/04/18 10:40:37;;;;;;;24.40;19.95;;;11.80;99.90;;;;;;2603116;54;20030;31
2023/04/18 10:43:14;;;;;;;29.38;20.27;;;11.80;99.90;;;;;;2603009;54;20549;31
2023/04/18 10:46:16;;;;;;;27.30;21.80;;;11.80;99.90;;;;;;2603120;54;20145;31
2023/04/18 10:49:18;;;;;;;26.75;19.98;;;11.80;99.90;;;;;;2603206;54;20019;31
2023/04/18 10:51:57;;;;;;;;;;;11.90;99.90;;;;;;2603597;54;20553;31
2023/04/18 10:54:34;;;;;;;;;;;11.90;99.90;;;;;;2603498;54;19934;31
2023/04/18 10:57:14;;;;;;;27.67;21.38;;;11.90;99.90;;;;;;2603449;54;19977;31
2023/04/18 11:02:31;;;;;;;28.58;21.10;;;12.00;99.90;;;;;;2603177;54;20822;31
2023/04/18 11:05:09;;;;;;;28.00;20.38;;;12.00;99.90;;;;;;2603158;54;20901;31
2023/04/18 11:07:47;;;;;;;22.85;19.00;;;12.00;99.90;;;;;;2602998;54;20549;31
2023/04/18 11:10:25;;;;;;;26.80;20.75;;;12.00;99.90;;;;;;2621618;46;20585;31
2023/04/18 11:13:04;;;;;;;23.13;18.25;;;12.00;99.90;;;;;;2603208;54;20796;31
2023/04/18 11:15:40;;;;;;;28.65;21.02;;;12.00;99.90;;;;;;2701516;39;20482;31
2023/04/18 11:18:20;;;;;;;26.98;21.25;;;12.00;99.90;;;;;;2701624;39;20486;31
2023/04/18 11:20:57;;;;;;;28.27;21.95;;;12.10;99.90;;;;;;2701823;39;21034;31
2023/04/18 11:23:34;;;;;;;26.17;20.38;;;12.00;99.90;;;;;;2621412;46;21621;31
2023/04/18 11:26:16;;;;;;;27.93;21.97;;;12.10;99.90;;;;;;2602987;54;20027;31
2023/04/18 11:28:55;;;;;;;29.55;21.52;;;12.10;99.90;;;;;;2603222;54;21631;31
2023/04/18 11:31:34;;;;;;;31.40;21.90;;;12.00;99.90;;;;;;2603032;54;20037;31
2023/04/18 11:34:15;;;;;;;31.77;23.65;;;12.10;99.90;;;;;;2720257;39;20511;31
2023/04/18 11:36:54;;;;;;;37.70;23.57;;;12.10;99.90;;;;;;2603538;54;20754;31
2023/04/18 11:39:33;;;;;;;33.03;23.38;;;12.00;99.90;;;;;;2622245;46;20241;31
2023/04/18 11:42:15;;;;;;;42.15;30.92;;;12.00;99.90;;;;;;2702392;39;20518;31
2023/04/18 11:44:52;;;;;;;31.67;23.95;;;12.00;99.90;;;;;;2621578;46;20029;31
2023/04/18 11:47:30;;;;;;;36.15;26.02;;;12.00;99.90;;;;;;2720350;39;20482;31
2023/04/18 11:50:05;;;;;;;40.15;27.65;;;12.00;99.90;;;;;;2603797;54;21409;31
2023/04/18 11:52:44;;;;;;;37.13;25.73;;;12.10;99.90;;;;;;2603943;54;20770;31
2023/04/18 11:55:23;;;;;;;30.85;23.50;;;12.20;99.90;;;;;;2604033;54;21253;31
2023/04/18 11:57:59;;;;;;;36.75;27.17;;;12.20;99.90;;;;;;2603961;54;20029;31
2023/04/18 12:00:37;;;;;;;;;;;12.30;99.90;;;;;;2622710;46;20026;31
2023/04/18 12:03:17;;;;;;;;;;;12.50;99.90;;;;;;2622468;46;19958;31
2023/04/18 12:06:01;;;;;;;35.43;26.87;;;12.60;99.90;;;;;;2603549;54;19935;31
2023/04/18 12:08:45;;;;;;;35.28;27.60;;;12.80;99.90;;;;;;2702283;39;20386;31
2023/04/18 12:11:23;;;;;;;34.60;27.45;;;12.80;99.90;;;;;;2622355;46;20105;31
2023/04/18 12:14:00;;;;;;;32.80;26.45;;;12.90;99.90;;;;;;2773468;31;21632;31
2023/04/18 12:16:39;;;;;;;31.63;25.98;;;13.00;99.90;;;;;;2702378;39;20649;31
2023/04/18 12:19:16;;;;;;;35.55;27.17;;;13.00;99.90;;;;;;2603578;54;20857;31
2023/04/18 12:21:59;;;;;;;38.75;29.48;;;13.10;99.90;;;;;;2602864;54;20855;31
2023/04/18 12:24:40;;;;;;;31.90;25.40;;;13.20;99.90;;;;;;2622527;46;20026;31
2023/04/18 12:27:17;;;;;;;28.75;23.20;;;13.20;99.90;;;;;;2603881;54;20110;31
2023/04/18 12:29:57;;;;;;;27.92;22.17;;;13.30;99.90;;;;;;2603389;54;20082;31
2023/04/18 12:32:37;;;;;;;29.85;22.85;;;13.30;99.90;;;;;;2603946;54;20037;31
2023/04/18 12:35:15;;;;;;;36.80;28.75;;;13.40;99.90;;;;;;2621488;46;25045;31
2023/04/18 12:37:52;;;;;;;43.45;31.45;;;13.40;99.90;;;;;;2622248;46;20022;31
2023/04/18 12:40:34;;;;;;;38.80;30.52;;;13.30;99.90;;;;;;2602728;54;20014;31
2023/04/18 12:43:12;;;;;;;35.72;30.35;;;13.30;99.90;;;;;;2612289;46;21092;31
2023/04/18 12:45:49;;;;;;;38.00;29.42;;;13.30;99.90;;;;;;2617436;46;20846;31
2023/04/18 12:48:30;;;;;;;41.85;31.30;;;13.40;99.90;;;;;;2621738;46;20878;31
2023/04/18 12:51:07;;;;;;;37.47;29.48;;;13.50;99.90;;;;;;2622201;46;20133;31
2023/04/18 12:53:45;;;;;;;36.97;29.15;;;13.60;99.90;;;;;;2622001;46;21910;31
2023/04/18 12:56:27;;;;;;;34.33;26.52;;;13.60;99.90;;;;;;2603681;54;20068;31
2023/04/18 12:59:05;;;;;;;32.65;27.17;;;13.60;99.90;;;;;;2603491;54;20027;31
2023/04/18 13:01:42;;;;;;;38.05;27.73;;;13.60;99.90;;;;;;2702325;39;20512;31
2023/04/18 13:04:20;;;;;;;35.60;27.70;;;13.60;99.90;;;;;;2603540;54;20892;31
2023/04/18 13:06:56;;;;;;;40.03;27.77;;;13.60;99.90;;;;;;2621756;46;20068;31
2023/04/18 13:09:34;;;;;;;;;;;13.60;99.90;;;;;;2702362;39;20440;31
2023/04/18 13:12:15;;;;;;;31.63;24.77;;;13.60;99.90;;;;;;2603449;54;20793;31
2023/04/18 13:14:51;;;;;;;35.55;28.35;;;13.70;99.90;;;;;;2603607;54;20856;31
2023/04/18 13:17:29;;;;;;;39.30;30.23;;;13.70;99.90;;;;;;2603702;54;20031;31
2023/04/18 13:20:14;;;;;;;37.38;29.10;;;13.80;99.90;;;;;;2702173;39;20477;31
2023/04/18 13:22:51;;;;;;;36.03;28.90;;;13.80;99.90;;;;;;2603686;54;20875;31
2023/04/18 13:25:30;;;;;;;38.70;27.45;;;13.90;99.90;;;;;;2603679;54;20027;31
2023/04/18 13:28:11;;;;;;;36.35;28.65;;;13.90;99.90;;;;;;2603525;54;20059;31
2023/04/18 13:30:52;;;;;;;35.22;27.55;;;14.00;99.90;;;;;;2603498;54;20768;31
2023/04/18 13:33:31;;;;;;;37.00;27.50;;;14.00;99.90;;;;;;2603883;54;20027;31
2023/04/18 13:36:17;;;;;;;31.92;26.67;;;14.00;99.90;;;;;;2603545;54;20866;31
2023/04/18 13:38:59;;;;;;;33.35;27.35;;;14.00;99.90;;;;;;2621744;46;20101;31
2023/04/18 13:41:45;;;;;;;35.05;26.70;;;14.10;99.90;;;;;;2603474;54;20747;31
2023/04/18 13:44:27;;;;;;;36.95;27.15;;;14.00;99.90;;;;;;2603609;54;20874;31
2023/04/18 13:47:06;;;;;;;34.15;26.08;;;14.00;99.90;;;;;;2602759;47;20834;31
2023/04/18 13:49:44;;;;;;;32.28;25.05;;;14.00;99.90;;;;;;2603244;54;20046;31
2023/04/18 13:52:21;;;;;;;34.25;25.75;;;14.00;99.90;;;;;;2603390;54;20837;31
2023/04/18 13:55:06;;;;;;;37.35;26.40;;;14.00;99.90;;;;;;2702004;39;21309;31
2023/04/18 13:57:43;;;;;;;28.92;23.13;;;14.00;99.90;;;;;;2603231;54;20030;31
2023/04/18 14:00:29;;;;;;;33.45;23.08;;;14.00;99.90;;;;;;2603368;54;20048;31